Terminal Aerodrome Forecast
Issued by NWS

Home | Current Version | Previous Version | Text Only | Print | Product List | Glossary On
Versions: 1 2 3 4 5 6 7 8 9 10 11 12 13
000
FTUS46 KPDT 272300
TAFBDN
TAF
KBDN 272334Z 2800/2824 33010KT P6SM SCT080
     FM280200 33012G25KT P6SM VCSH SCT040 BKN080
     FM280800 32012KT P6SM SCT050
     FM281200 32010KT P6SM SKC
     FM282100 33008KT P6SM SKC=

USA.gov is the U.S. government's official web portal to all federal, state and local government web resources and services.